sensor_id;sensor_type;location;lat;lon;timestamp;P1;durP1;ratioP1;P2;durP2;ratioP2
61673;SDS011;47573;43.832;5.974;2023-12-14T00:04:38;1595.50;;;924.10;;
61673;SDS011;47573;43.832;5.974;2023-12-14T00:11:20;1592.68;;;926.47;;
61673;SDS011;47573;43.832;5.974;2023-12-14T00:18:00;1576.97;;;917.10;;
61673;SDS011;47573;43.832;5.974;2023-12-14T00:24:41;1553.28;;;911.67;;
61673;SDS011;47573;43.832;5.974;2023-12-14T00:31:24;1542.18;;;907.38;;
61673;SDS011;47573;43.832;5.974;2023-12-14T00:38:05;1532.95;;;909.63;;
61673;SDS011;47573;43.832;5.974;2023-12-14T00:44:46;1537.65;;;906.40;;
61673;SDS011;47573;43.832;5.974;2023-12-14T00:51:28;1523.05;;;899.67;;
61673;SDS011;47573;43.832;5.974;2023-12-14T00:58:09;1524.90;;;902.93;;
61673;SDS011;47573;43.832;5.974;2023-12-14T01:04:49;1492.53;;;895.05;;
61673;SDS011;47573;43.832;5.974;2023-12-14T01:11:31;1500.13;;;897.35;;
61673;SDS011;47573;43.832;5.974;2023-12-14T01:18:12;1469.00;;;889.90;;
61673;SDS011;47573;43.832;5.974;2023-12-14T01:24:53;1429.07;;;881.00;;
61673;SDS011;47573;43.832;5.974;2023-12-14T01:31:35;1425.25;;;875.67;;
61673;SDS011;47573;43.832;5.974;2023-12-14T01:38:15;1406.43;;;868.75;;
61673;SDS011;47573;43.832;5.974;2023-12-14T01:44:56;1396.30;;;872.72;;
61673;SDS011;47573;43.832;5.974;2023-12-14T01:51:38;1372.72;;;863.25;;
61673;SDS011;47573;43.832;5.974;2023-12-14T01:58:19;1356.40;;;854.78;;
61673;SDS011;47573;43.832;5.974;2023-12-14T02:05:00;1331.85;;;842.60;;
61673;SDS011;47573;43.832;5.974;2023-12-14T02:11:42;1317.53;;;841.28;;
61673;SDS011;47573;43.832;5.974;2023-12-14T02:18:23;1304.68;;;832.60;;
61673;SDS011;47573;43.832;5.974;2023-12-14T02:25:06;1294.18;;;830.03;;
61673;SDS011;47573;43.832;5.974;2023-12-14T02:31:47;1272.03;;;818.17;;
61673;SDS011;47573;43.832;5.974;2023-12-14T02:38:28;1246.55;;;812.03;;
61673;SDS011;47573;43.832;5.974;2023-12-14T02:45:10;1236.95;;;811.40;;
61673;SDS011;47573;43.832;5.974;2023-12-14T02:51:51;1222.03;;;800.67;;
61673;SDS011;47573;43.832;5.974;2023-12-14T02:58:32;1204.03;;;796.90;;
61673;SDS011;47573;43.832;5.974;2023-12-14T03:05:14;1198.45;;;787.47;;
61673;SDS011;47573;43.832;5.974;2023-12-14T03:11:54;1182.47;;;783.47;;
61673;SDS011;47573;43.832;5.974;2023-12-14T03:18:36;1166.55;;;774.83;;
61673;SDS011;47573;43.832;5.974;2023-12-14T03:25:18;1149.22;;;765.92;;
61673;SDS011;47573;43.832;5.974;2023-12-14T03:31:58;1126.05;;;758.55;;
61673;SDS011;47573;43.832;5.974;2023-12-14T03:38:39;1115.18;;;752.40;;
61673;SDS011;47573;43.832;5.974;2023-12-14T03:45:21;1105.13;;;747.47;;
61673;SDS011;47573;43.832;5.974;2023-12-14T03:52:02;1089.63;;;737.15;;
61673;SDS011;47573;43.832;5.974;2023-12-14T03:58:43;1069.15;;;729.22;;
61673;SDS011;47573;43.832;5.974;2023-12-14T04:05:25;1063.38;;;721.03;;
61673;SDS011;47573;43.832;5.974;2023-12-14T04:12:06;1041.75;;;714.00;;
61673;SDS011;47573;43.832;5.974;2023-12-14T04:18:47;1025.47;;;704.90;;
61673;SDS011;47573;43.832;5.974;2023-12-14T04:25:29;1017.25;;;691.20;;
61673;SDS011;47573;43.832;5.974;2023-12-14T04:32:10;988.13;;;677.90;;
61673;SDS011;47573;43.832;5.974;2023-12-14T04:38:51;986.65;;;677.15;;
61673;SDS011;47573;43.832;5.974;2023-12-14T04:45:33;959.03;;;665.75;;
61673;SDS011;47573;43.832;5.974;2023-12-14T04:52:14;958.05;;;657.38;;
61673;SDS011;47573;43.832;5.974;2023-12-14T04:58:54;931.03;;;643.13;;
61673;SDS011;47573;43.832;5.974;2023-12-14T05:05:37;912.88;;;636.50;;
61673;SDS011;47573;43.832;5.974;2023-12-14T05:12:17;898.53;;;624.22;;
61673;SDS011;47573;43.832;5.974;2023-12-14T05:18:58;874.47;;;607.33;;
61673;SDS011;47573;43.832;5.974;2023-12-14T05:25:40;860.15;;;600.35;;
61673;SDS011;47573;43.832;5.974;2023-12-14T05:32:21;848.35;;;583.83;;
61673;SDS011;47573;43.832;5.974;2023-12-14T05:39:02;830.97;;;573.85;;
61673;SDS011;47573;43.832;5.974;2023-12-14T05:45:45;819.08;;;557.85;;
61673;SDS011;47573;43.832;5.974;2023-12-14T05:52:26;790.47;;;538.42;;
61673;SDS011;47573;43.832;5.974;2023-12-14T05:59:07;744.72;;;503.52;;
61673;SDS011;47573;43.832;5.974;2023-12-14T06:05:49;744.08;;;507.52;;
61673;SDS011;47573;43.832;5.974;2023-12-14T06:12:29;987.25;;;587.70;;
61673;SDS011;47573;43.832;5.974;2023-12-14T06:19:10;905.65;;;551.45;;
61673;SDS011;47573;43.832;5.974;2023-12-14T06:25:52;796.97;;;505.15;;
61673;SDS011;47573;43.832;5.974;2023-12-14T06:32:33;710.55;;;469.10;;
61673;SDS011;47573;43.832;5.974;2023-12-14T06:39:13;682.22;;;449.98;;
61673;SDS011;47573;43.832;5.974;2023-12-14T06:45:55;656.67;;;431.05;;
61673;SDS011;47573;43.832;5.974;2023-12-14T06:52:36;638.72;;;412.60;;
61673;SDS011;47573;43.832;5.974;2023-12-14T06:59:17;621.35;;;400.25;;
61673;SDS011;47573;43.832;5.974;2023-12-14T07:05:58;619.03;;;396.33;;
61673;SDS011;47573;43.832;5.974;2023-12-14T07:12:39;588.50;;;377.05;;
61673;SDS011;47573;43.832;5.974;2023-12-14T07:19:20;588.85;;;377.73;;
61673;SDS011;47573;43.832;5.974;2023-12-14T07:26:02;567.28;;;355.75;;
61673;SDS011;47573;43.832;5.974;2023-12-14T07:32:43;580.90;;;360.87;;
61673;SDS011;47573;43.832;5.974;2023-12-14T07:39:24;565.70;;;352.63;;
61673;SDS011;47573;43.832;5.974;2023-12-14T07:46:07;569.22;;;350.08;;
61673;SDS011;47573;43.832;5.974;2023-12-14T07:52:48;617.20;;;362.83;;
61673;SDS011;47573;43.832;5.974;2023-12-14T07:59:29;531.97;;;326.77;;
61673;SDS011;47573;43.832;5.974;2023-12-14T08:06:11;539.15;;;325.17;;
61673;SDS011;47573;43.832;5.974;2023-12-14T08:12:52;504.27;;;308.23;;
61673;SDS011;47573;43.832;5.974;2023-12-14T08:19:32;777.75;;;423.33;;
61673;SDS011;47573;43.832;5.974;2023-12-14T08:26:14;531.08;;;313.70;;
61673;SDS011;47573;43.832;5.974;2023-12-14T08:32:55;491.90;;;295.98;;
61673;SDS011;47573;43.832;5.974;2023-12-14T08:39:36;474.38;;;282.52;;
61673;SDS011;47573;43.832;5.974;2023-12-14T08:46:17;464.85;;;279.02;;
61673;SDS011;47573;43.832;5.974;2023-12-14T08:52:58;474.33;;;278.85;;
61673;SDS011;47573;43.832;5.974;2023-12-14T08:59:39;451.65;;;269.10;;
61673;SDS011;47573;43.832;5.974;2023-12-14T09:06:21;430.90;;;253.88;;
61673;SDS011;47573;43.832;5.974;2023-12-14T09:13:02;425.90;;;252.02;;
61673;SDS011;47573;43.832;5.974;2023-12-14T09:19:44;409.27;;;247.80;;
61673;SDS011;47573;43.832;5.974;2023-12-14T09:26:26;397.15;;;234.10;;
61673;SDS011;47573;43.832;5.974;2023-12-14T09:33:06;403.75;;;238.93;;
61673;SDS011;47573;43.832;5.974;2023-12-14T09:39:49;382.25;;;226.70;;
61673;SDS011;47573;43.832;5.974;2023-12-14T09:46:30;372.80;;;222.38;;
61673;SDS011;47573;43.832;5.974;2023-12-14T09:53:13;368.73;;;216.25;;
61673;SDS011;47573;43.832;5.974;2023-12-14T09:59:54;355.63;;;207.13;;
61673;SDS011;47573;43.832;5.974;2023-12-14T10:06:36;341.27;;;197.93;;
61673;SDS011;47573;43.832;5.974;2023-12-14T10:13:18;319.47;;;183.00;;
61673;SDS011;47573;43.832;5.974;2023-12-14T10:19:59;309.23;;;178.25;;
61673;SDS011;47573;43.832;5.974;2023-12-14T10:26:45;302.70;;;173.43;;
61673;SDS011;47573;43.832;5.974;2023-12-14T10:33:26;318.77;;;185.52;;
61673;SDS011;47573;43.832;5.974;2023-12-14T10:40:07;306.98;;;173.40;;
61673;SDS011;47573;43.832;5.974;2023-12-14T10:46:52;286.30;;;159.95;;
61673;SDS011;47573;43.832;5.974;2023-12-14T10:53:36;275.73;;;155.43;;
61673;SDS011;47573;43.832;5.974;2023-12-14T11:00:17;280.15;;;154.20;;
61673;SDS011;47573;43.832;5.974;2023-12-14T11:06:59;260.10;;;146.70;;
61673;SDS011;47573;43.832;5.974;2023-12-14T11:20:25;263.48;;;145.45;;
61673;SDS011;47573;43.832;5.974;2023-12-14T11:27:08;257.40;;;141.85;;
61673;SDS011;47573;43.832;5.974;2023-12-14T11:33:49;247.47;;;139.43;;
61673;SDS011;47573;43.832;5.974;2023-12-14T11:40:29;240.60;;;134.07;;
61673;SDS011;47573;43.832;5.974;2023-12-14T11:47:12;262.70;;;136.93;;
61673;SDS011;47573;43.832;5.974;2023-12-14T11:53:53;242.23;;;132.23;;
61673;SDS011;47573;43.832;5.974;2023-12-14T12:00:34;226.85;;;125.55;;
61673;SDS011;47573;43.832;5.974;2023-12-14T12:07:19;218.02;;;122.45;;
61673;SDS011;47573;43.832;5.974;2023-12-14T12:13:59;208.60;;;118.10;;
61673;SDS011;47573;43.832;5.974;2023-12-14T12:20:40;201.20;;;110.97;;
61673;SDS011;47573;43.832;5.974;2023-12-14T12:27:22;188.48;;;105.88;;
61673;SDS011;47573;43.832;5.974;2023-12-14T12:34:03;177.25;;;103.45;;
61673;SDS011;47573;43.832;5.974;2023-12-14T12:40:43;186.70;;;104.18;;
61673;SDS011;47573;43.832;5.974;2023-12-14T12:47:26;173.43;;;98.20;;
61673;SDS011;47573;43.832;5.974;2023-12-14T12:54:06;166.30;;;92.07;;
61673;SDS011;47573;43.832;5.974;2023-12-14T13:00:47;164.95;;;91.28;;
61673;SDS011;47573;43.832;5.974;2023-12-14T13:07:29;155.45;;;87.10;;
61673;SDS011;47573;43.832;5.974;2023-12-14T13:14:10;148.73;;;84.38;;
61673;SDS011;47573;43.832;5.974;2023-12-14T13:20:50;146.00;;;81.03;;
61673;SDS011;47573;43.832;5.974;2023-12-14T13:27:32;136.98;;;76.90;;
61673;SDS011;47573;43.832;5.974;2023-12-14T13:34:16;134.38;;;73.13;;
61673;SDS011;47573;43.832;5.974;2023-12-14T13:40:56;133.18;;;71.85;;
61673;SDS011;47573;43.832;5.974;2023-12-14T13:47:38;128.20;;;71.68;;
61673;SDS011;47573;43.832;5.974;2023-12-14T13:54:19;117.00;;;64.22;;
61673;SDS011;47573;43.832;5.974;2023-12-14T14:01:00;109.35;;;60.13;;
61673;SDS011;47573;43.832;5.974;2023-12-14T14:07:42;107.70;;;60.08;;
61673;SDS011;47573;43.832;5.974;2023-12-14T14:14:22;102.95;;;57.03;;
61673;SDS011;47573;43.832;5.974;2023-12-14T14:21:03;104.30;;;55.65;;
61673;SDS011;47573;43.832;5.974;2023-12-14T14:27:49;67.45;;;36.85;;
61673;SDS011;47573;43.832;5.974;2023-12-14T14:34:29;88.63;;;48.25;;
61673;SDS011;47573;43.832;5.974;2023-12-14T14:41:10;85.78;;;48.65;;
61673;SDS011;47573;43.832;5.974;2023-12-14T14:47:52;100.82;;;47.42;;
61673;SDS011;47573;43.832;5.974;2023-12-14T14:54:33;78.75;;;45.65;;
61673;SDS011;47573;43.832;5.974;2023-12-14T15:01:14;74.10;;;43.30;;
61673;SDS011;47573;43.832;5.974;2023-12-14T15:07:56;75.35;;;43.33;;
61673;SDS011;47573;43.832;5.974;2023-12-14T15:14:39;73.55;;;42.70;;
61673;SDS011;47573;43.832;5.974;2023-12-14T15:21:20;72.93;;;43.80;;
61673;SDS011;47573;43.832;5.974;2023-12-14T15:28:02;72.65;;;42.55;;
61673;SDS011;47573;43.832;5.974;2023-12-14T15:34:42;76.38;;;41.85;;
61673;SDS011;47573;43.832;5.974;2023-12-14T15:41:23;68.32;;;41.40;;
61673;SDS011;47573;43.832;5.974;2023-12-14T15:48:05;67.15;;;39.33;;
61673;SDS011;47573;43.832;5.974;2023-12-14T15:54:46;78.47;;;45.95;;
61673;SDS011;47573;43.832;5.974;2023-12-14T16:01:27;118.32;;;62.75;;
61673;SDS011;47573;43.832;5.974;2023-12-14T16:08:09;123.03;;;69.47;;
61673;SDS011;47573;43.832;5.974;2023-12-14T16:14:51;118.03;;;67.82;;
61673;SDS011;47573;43.832;5.974;2023-12-14T16:21:36;118.70;;;69.68;;
61673;SDS011;47573;43.832;5.974;2023-12-14T16:28:18;173.95;;;96.25;;
61673;SDS011;47573;43.832;5.974;2023-12-14T16:35:00;185.50;;;104.60;;
61673;SDS011;47573;43.832;5.974;2023-12-14T16:41:41;219.30;;;121.95;;
61673;SDS011;47573;43.832;5.974;2023-12-14T16:48:24;241.50;;;134.57;;
61673;SDS011;47573;43.832;5.974;2023-12-14T16:55:05;266.77;;;146.43;;
61673;SDS011;47573;43.832;5.974;2023-12-14T17:01:47;285.10;;;157.57;;
61673;SDS011;47573;43.832;5.974;2023-12-14T17:08:29;325.10;;;186.65;;
61673;SDS011;47573;43.832;5.974;2023-12-14T17:15:10;348.58;;;202.98;;
61673;SDS011;47573;43.832;5.974;2023-12-14T17:21:52;376.67;;;220.93;;
61673;SDS011;47573;43.832;5.974;2023-12-14T17:28:35;397.15;;;236.48;;
61673;SDS011;47573;43.832;5.974;2023-12-14T17:35:16;425.73;;;258.13;;
61673;SDS011;47573;43.832;5.974;2023-12-14T17:41:57;447.95;;;270.75;;
61673;SDS011;47573;43.832;5.974;2023-12-14T17:48:39;473.05;;;294.52;;
61673;SDS011;47573;43.832;5.974;2023-12-14T17:55:20;473.87;;;298.97;;
61673;SDS011;47573;43.832;5.974;2023-12-14T18:02:01;492.85;;;315.80;;
61673;SDS011;47573;43.832;5.974;2023-12-14T18:08:43;518.88;;;335.95;;
61673;SDS011;47573;43.832;5.974;2023-12-14T18:15:24;526.00;;;343.88;;
61673;SDS011;47573;43.832;5.974;2023-12-14T18:22:05;540.47;;;361.95;;
61673;SDS011;47573;43.832;5.974;2023-12-14T18:28:47;548.63;;;366.98;;
61673;SDS011;47573;43.832;5.974;2023-12-14T18:35:28;542.10;;;365.50;;
61673;SDS011;47573;43.832;5.974;2023-12-14T18:42:09;537.90;;;355.63;;
61673;SDS011;47573;43.832;5.974;2023-12-14T18:48:52;533.93;;;351.93;;
61673;SDS011;47573;43.832;5.974;2023-12-14T18:55:32;542.70;;;359.77;;
61673;SDS011;47573;43.832;5.974;2023-12-14T19:02:13;554.72;;;368.73;;
61673;SDS011;47573;43.832;5.974;2023-12-14T19:08:55;565.80;;;382.88;;
61673;SDS011;47573;43.832;5.974;2023-12-14T19:15:36;567.67;;;387.63;;
61673;SDS011;47573;43.832;5.974;2023-12-14T19:22:17;569.35;;;395.13;;
61673;SDS011;47573;43.832;5.974;2023-12-14T19:28:59;582.92;;;407.13;;
61673;SDS011;47573;43.832;5.974;2023-12-14T19:35:39;585.10;;;409.65;;
61673;SDS011;47573;43.832;5.974;2023-12-14T19:42:20;609.05;;;429.80;;
61673;SDS011;47573;43.832;5.974;2023-12-14T19:49:03;597.95;;;422.80;;
61673;SDS011;47573;43.832;5.974;2023-12-14T19:55:43;590.77;;;413.83;;
61673;SDS011;47573;43.832;5.974;2023-12-14T20:02:24;583.78;;;412.15;;
61673;SDS011;47573;43.832;5.974;2023-12-14T20:09:06;583.42;;;399.38;;
61673;SDS011;47573;43.832;5.974;2023-12-14T20:15:46;593.13;;;399.35;;
61673;SDS011;47573;43.832;5.974;2023-12-14T20:22:29;551.07;;;374.67;;
61673;SDS011;47573;43.832;5.974;2023-12-14T20:29:14;550.92;;;372.38;;
61673;SDS011;47573;43.832;5.974;2023-12-14T20:35:54;563.83;;;385.13;;
61673;SDS011;47573;43.832;5.974;2023-12-14T20:42:35;560.35;;;383.23;;
61673;SDS011;47573;43.832;5.974;2023-12-14T20:49:17;559.78;;;377.13;;
61673;SDS011;47573;43.832;5.974;2023-12-14T20:55:59;555.08;;;373.30;;
61673;SDS011;47573;43.832;5.974;2023-12-14T21:02:40;542.63;;;363.85;;
61673;SDS011;47573;43.832;5.974;2023-12-14T21:09:22;533.70;;;355.98;;
61673;SDS011;47573;43.832;5.974;2023-12-14T21:22:44;506.60;;;328.90;;
61673;SDS011;47573;43.832;5.974;2023-12-14T21:29:26;503.63;;;331.83;;
61673;SDS011;47573;43.832;5.974;2023-12-14T21:36:07;492.80;;;321.13;;
61673;SDS011;47573;43.832;5.974;2023-12-14T21:42:49;489.98;;;315.65;;
61673;SDS011;47573;43.832;5.974;2023-12-14T21:49:31;489.52;;;313.42;;
61673;SDS011;47573;43.832;5.974;2023-12-14T21:56:12;469.40;;;301.87;;
61673;SDS011;47573;43.832;5.974;2023-12-14T22:02:52;466.80;;;298.60;;
61673;SDS011;47573;43.832;5.974;2023-12-14T22:09:34;448.20;;;288.48;;
61673;SDS011;47573;43.832;5.974;2023-12-14T22:16:15;442.83;;;279.65;;
61673;SDS011;47573;43.832;5.974;2023-12-14T22:22:56;428.95;;;273.58;;
61673;SDS011;47573;43.832;5.974;2023-12-14T22:29:38;413.33;;;263.33;;
61673;SDS011;47573;43.832;5.974;2023-12-14T22:36:18;391.60;;;245.67;;
61673;SDS011;47573;43.832;5.974;2023-12-14T22:42:59;426.30;;;270.55;;
61673;SDS011;47573;43.832;5.974;2023-12-14T22:49:41;447.98;;;285.05;;
61673;SDS011;47573;43.832;5.974;2023-12-14T22:56:22;437.73;;;275.55;;
61673;SDS011;47573;43.832;5.974;2023-12-14T23:03:04;421.63;;;266.63;;
61673;SDS011;47573;43.832;5.974;2023-12-14T23:09:46;432.27;;;274.92;;
61673;SDS011;47573;43.832;5.974;2023-12-14T23:16:26;461.90;;;287.13;;
61673;SDS011;47573;43.832;5.974;2023-12-14T23:23:07;447.92;;;279.48;;
61673;SDS011;47573;43.832;5.974;2023-12-14T23:29:49;454.38;;;281.77;;
61673;SDS011;47573;43.832;5.974;2023-12-14T23:36:30;436.10;;;273.08;;
61673;SDS011;47573;43.832;5.974;2023-12-14T23:43:10;430.27;;;267.42;;
61673;SDS011;47573;43.832;5.974;2023-12-14T23:49:53;404.08;;;256.35;;
61673;SDS011;47573;43.832;5.974;2023-12-14T23:56:33;455.13;;;280.87;;
